createdAt,value
2019-01-09T00:03:04.200Z,4.90
2019-01-09T00:07:06.632Z,5.00
2019-01-09T00:11:08.987Z,5.00
2019-01-09T00:15:11.409Z,4.90
2019-01-09T00:19:13.773Z,5.60
2019-01-09T00:23:16.156Z,5.10
2019-01-09T00:27:18.498Z,5.40
2019-01-09T00:31:20.969Z,5.10
2019-01-09T00:35:23.402Z,5.70
2019-01-09T00:39:25.814Z,5.50
2019-01-09T00:43:28.194Z,5.60
2019-01-09T00:47:30.671Z,5.70
2019-01-09T00:51:33.137Z,5.60
2019-01-09T00:55:35.481Z,4.60
2019-01-09T00:59:37.874Z,4.90
2019-01-09T01:03:50.983Z,4.40
2019-01-09T01:08:12.065Z,4.40
2019-01-09T01:16:32.386Z,4.50
2019-01-09T01:20:41.118Z,3.60
2019-01-09T01:25:55.154Z,4.50
2019-01-09T01:32:32.323Z,4.20
2019-01-09T01:37:53.097Z,4.10
2019-01-09T01:43:48.442Z,3.60
2019-01-09T01:49:03.162Z,3.80
2019-01-09T01:53:24.162Z,4.30
2019-01-09T01:59:38.303Z,4.40
2019-01-09T02:03:54.923Z,4.00
2019-01-09T02:08:09.983Z,4.10
2019-01-09T02:12:23.357Z,3.80
2019-01-09T02:16:35.883Z,4.00
2019-01-09T02:20:55.046Z,4.40
2019-01-09T02:25:07.612Z,4.50
2019-01-09T02:29:19.926Z,3.30
2019-01-09T02:33:22.251Z,4.90
2019-01-09T02:37:24.583Z,3.90
2019-01-09T02:41:26.897Z,4.10
2019-01-09T02:45:29.222Z,5.00
2019-01-09T02:49:31.569Z,5.10
2019-01-09T02:53:33.906Z,4.90
2019-01-09T02:57:36.201Z,5.30
2019-01-09T03:01:38.492Z,4.80
2019-01-09T03:05:40.868Z,4.70
2019-01-09T03:09:43.242Z,4.50
2019-01-09T03:13:45.603Z,4.70
2019-01-09T03:17:47.933Z,4.70
2019-01-09T03:21:50.275Z,4.50
2019-01-09T03:25:52.677Z,4.10
2019-01-09T03:29:55.015Z,5.00
2019-01-09T03:33:57.386Z,4.30
2019-01-09T03:37:59.714Z,4.30
2019-01-09T03:42:02.052Z,4.30
2019-01-09T03:46:04.410Z,4.60
2019-01-09T03:50:07.107Z,4.70
2019-01-09T03:54:09.451Z,4.20
2019-01-09T03:58:11.772Z,3.60
2019-01-09T04:02:14.067Z,4.40
2019-01-09T04:06:16.411Z,4.40
2019-01-09T04:10:18.766Z,5.20
2019-01-09T04:14:21.091Z,4.90
2019-01-09T04:18:23.396Z,4.80
2019-01-09T04:22:25.745Z,4.20
2019-01-09T04:26:28.045Z,4.70
2019-01-09T04:30:30.387Z,4.40
2019-01-09T04:34:32.746Z,4.20
2019-01-09T04:38:35.078Z,4.40
2019-01-09T04:42:37.407Z,4.60
2019-01-09T04:46:39.725Z,4.10
2019-01-09T04:50:42.034Z,5.10
2019-01-09T04:54:44.382Z,5.00
2019-01-09T04:58:46.672Z,4.60
2019-01-09T05:02:48.981Z,5.00
2019-01-09T05:07:00.314Z,4.80
2019-01-09T05:10:53.728Z,4.00
2019-01-09T05:14:56.167Z,4.90
2019-01-09T05:18:58.487Z,4.90
2019-01-09T05:23:00.814Z,4.70
2019-01-09T05:27:03.171Z,5.10
2019-01-09T05:31:07.786Z,4.30
2019-01-09T05:35:07.905Z,3.90
2019-01-09T05:39:10.211Z,4.20
2019-01-09T05:43:12.531Z,4.00
2019-01-09T05:47:14.839Z,4.20
2019-01-09T05:51:17.177Z,4.30
2019-01-09T05:55:19.499Z,4.30
2019-01-09T05:59:21.826Z,3.80
2019-01-09T06:03:24.160Z,3.80
2019-01-09T06:07:26.519Z,3.50
2019-01-09T06:11:28.926Z,3.30
2019-01-09T06:15:31.261Z,2.80
2019-01-09T06:19:33.637Z,3.60
2019-01-09T06:23:36.039Z,3.00
2019-01-09T06:27:38.349Z,3.10
2019-01-09T06:31:40.683Z,2.20
2019-01-09T06:35:43.054Z,2.20
2019-01-09T06:39:45.410Z,3.50
2019-01-09T06:43:47.724Z,3.00
2019-01-09T06:47:50.053Z,2.70
2019-01-09T06:51:52.370Z,2.60
2019-01-09T06:55:54.722Z,3.60
2019-01-09T06:59:57.091Z,4.10
2019-01-09T07:03:59.439Z,3.30
2019-01-09T07:08:01.792Z,2.90
2019-01-09T07:12:04.079Z,2.70
2019-01-09T07:16:06.403Z,3.70
2019-01-09T07:20:08.753Z,3.80
2019-01-09T07:24:11.114Z,3.80
2019-01-09T07:28:13.400Z,3.60
2019-01-09T07:32:15.694Z,3.00
2019-01-09T07:36:18.004Z,3.80
2019-01-09T07:40:20.346Z,3.80
2019-01-09T07:44:22.698Z,3.80
2019-01-09T07:48:24.997Z,4.50
2019-01-09T07:52:27.329Z,4.30
2019-01-09T07:56:29.650Z,4.70
2019-01-09T08:00:31.958Z,4.20
2019-01-09T08:04:34.270Z,4.90
2019-01-09T08:08:36.568Z,5.00
2019-01-09T08:12:38.870Z,4.40
2019-01-09T08:16:41.224Z,5.10
2019-01-09T08:20:43.609Z,3.70
2019-01-09T08:24:45.929Z,4.50
2019-01-09T08:28:48.264Z,4.30
2019-01-09T08:32:50.597Z,4.30
2019-01-09T08:36:52.899Z,4.40
2019-01-09T08:40:55.245Z,4.30
2019-01-09T08:44:57.593Z,4.80
2019-01-09T08:48:59.970Z,4.10
2019-01-09T08:53:02.287Z,4.50
2019-01-09T08:57:04.643Z,4.10
2019-01-09T09:01:06.961Z,3.40
2019-01-09T09:05:09.300Z,3.40
2019-01-09T09:09:11.460Z,4.40
2019-01-09T09:13:27.624Z,4.00
2019-01-09T09:17:29.977Z,4.60
2019-01-09T09:21:32.286Z,4.30
2019-01-09T09:25:34.574Z,4.30
2019-01-09T09:29:36.865Z,4.30
2019-01-09T09:33:39.151Z,4.10
2019-01-09T09:37:41.417Z,4.20
2019-01-09T09:41:43.738Z,5.40
2019-01-09T09:45:46.033Z,4.00
2019-01-09T09:49:48.349Z,3.90
2019-01-09T09:53:50.627Z,3.70
2019-01-09T09:57:53.079Z,3.50
2019-01-09T10:01:55.434Z,4.50
2019-01-09T10:05:57.822Z,3.60
2019-01-09T10:10:06.933Z,3.50
2019-01-09T10:14:09.263Z,4.50
2019-01-09T10:18:11.629Z,4.00
2019-01-09T10:22:13.995Z,4.70
2019-01-09T10:26:16.347Z,3.00
2019-01-09T10:30:18.862Z,3.20
2019-01-09T10:34:21.281Z,4.10
2019-01-09T10:38:23.712Z,3.10
2019-01-09T10:42:26.153Z,3.40
2019-01-09T10:46:28.527Z,4.50
2019-01-09T10:50:30.855Z,3.70
2019-01-09T10:54:33.237Z,3.70
2019-01-09T10:58:35.607Z,4.00
2019-01-09T11:02:37.943Z,3.90
2019-01-09T11:06:40.361Z,3.50
2019-01-09T11:10:42.757Z,4.50
2019-01-09T11:14:45.073Z,3.80
2019-01-09T11:18:47.424Z,3.40
2019-01-09T11:22:49.778Z,4.50
2019-01-09T11:26:52.276Z,3.90
2019-01-09T11:30:54.866Z,3.50
2019-01-09T11:34:57.187Z,3.30
2019-01-09T11:38:59.622Z,3.40
2019-01-09T11:43:03.745Z,3.00
2019-01-09T11:47:04.382Z,4.10
2019-01-09T11:51:06.703Z,3.00
2019-01-09T11:55:10.407Z,3.40
2019-01-09T11:59:12.741Z,3.50
2019-01-09T12:03:15.082Z,3.80
2019-01-09T12:07:17.433Z,3.20
2019-01-09T12:11:19.758Z,3.50
2019-01-09T12:15:22.222Z,3.40
2019-01-09T12:19:24.641Z,2.90
2019-01-09T12:23:26.970Z,3.20
2019-01-09T12:27:29.363Z,2.80
2019-01-09T12:31:38.317Z,2.80
2019-01-09T12:35:40.657Z,2.90
2019-01-09T12:39:42.976Z,2.90
2019-01-09T12:43:45.348Z,2.20
2019-01-09T12:47:47.718Z,2.70
2019-01-09T12:51:50.041Z,3.40
2019-01-09T12:55:52.463Z,3.00
2019-01-09T12:59:54.797Z,3.60
2019-01-09T13:03:57.165Z,2.80
2019-01-09T13:07:59.430Z,3.40
2019-01-09T13:12:01.893Z,3.00
2019-01-09T13:16:04.315Z,4.40
2019-01-09T13:20:08.322Z,3.50
2019-01-09T13:24:10.655Z,5.00
2019-01-09T13:28:12.956Z,3.90
2019-01-09T13:32:15.302Z,3.40
2019-01-09T13:36:17.665Z,3.70
2019-01-09T13:40:20.251Z,4.40
2019-01-09T13:44:22.634Z,4.00
2019-01-09T13:48:25.449Z,3.20
2019-01-09T13:52:28.472Z,3.50
2019-01-09T13:56:30.832Z,3.10
2019-01-09T14:00:33.171Z,3.20
2019-01-09T14:04:35.581Z,2.40
2019-01-09T14:08:37.926Z,2.70
2019-01-09T14:12:40.211Z,2.80
2019-01-09T14:16:42.590Z,3.00
2019-01-09T14:20:44.901Z,2.60
2019-01-09T14:24:47.248Z,2.30
2019-01-09T14:28:49.630Z,2.50
2019-01-09T14:32:51.916Z,2.60
2019-01-09T14:36:54.245Z,2.30
2019-01-09T14:40:56.577Z,3.00
2019-01-09T14:44:58.914Z,2.70
2019-01-09T14:49:01.327Z,4.30
2019-01-09T14:53:03.709Z,4.20
2019-01-09T14:57:06.107Z,3.70
2019-01-09T15:01:08.464Z,4.00
2019-01-09T15:05:10.997Z,4.20
2019-01-09T15:09:13.375Z,3.80
2019-01-09T15:13:15.740Z,4.20
2019-01-09T15:17:18.140Z,2.50
2019-01-09T15:21:20.505Z,3.40
2019-01-09T15:25:22.926Z,2.00
2019-01-09T15:29:25.331Z,2.20
2019-01-09T15:33:27.685Z,2.40
2019-01-09T15:37:30.044Z,2.40
2019-01-09T15:41:32.415Z,1.70
2019-01-09T15:45:34.890Z,1.80
2019-01-09T15:49:37.207Z,2.20
2019-01-09T15:53:39.530Z,2.90
2019-01-09T15:57:42.284Z,2.40
2019-01-09T16:01:44.615Z,2.50
2019-01-09T16:05:46.955Z,2.70
2019-01-09T16:09:49.291Z,2.50
2019-01-09T16:13:51.651Z,2.60
2019-01-09T16:17:54.038Z,2.70
2019-01-09T16:21:56.476Z,2.60
2019-01-09T16:25:58.809Z,2.50
2019-01-09T16:30:01.190Z,2.80
2019-01-09T16:34:04.119Z,3.70
2019-01-09T16:38:06.438Z,2.60
2019-01-09T16:42:08.795Z,2.00
2019-01-09T16:46:11.219Z,2.40
2019-01-09T16:50:15.588Z,1.90
2019-01-09T16:54:17.887Z,2.80
2019-01-09T16:58:20.257Z,2.30
2019-01-09T17:02:22.618Z,2.30
2019-01-09T17:06:24.952Z,1.80
2019-01-09T17:10:32.268Z,2.60
2019-01-09T17:14:29.740Z,2.70
2019-01-09T17:18:32.144Z,2.50
2019-01-09T17:22:41.188Z,2.20
2019-01-09T17:26:43.558Z,2.10
2019-01-09T17:30:46.059Z,2.80
2019-01-09T17:34:48.458Z,2.40
2019-01-09T17:38:50.882Z,3.40
2019-01-09T17:42:53.366Z,2.40
2019-01-09T17:46:55.739Z,2.10
2019-01-09T17:50:58.065Z,2.30
2019-01-09T17:55:00.499Z,2.50
2019-01-09T17:59:02.927Z,2.20
2019-01-09T18:03:05.313Z,2.50
2019-01-09T18:07:07.758Z,2.60
2019-01-09T18:11:12.344Z,2.70
2019-01-09T18:15:16.373Z,2.30
2019-01-09T18:19:18.738Z,2.50
2019-01-09T18:23:21.158Z,2.00
2019-01-09T18:27:24.455Z,2.30
2019-01-09T18:31:36.484Z,2.40
2019-01-09T18:35:51.754Z,2.00
2019-01-09T18:41:16.253Z,2.80
2019-01-09T18:45:39.759Z,1.70
2019-01-09T18:51:58.692Z,2.80
2019-01-09T18:56:01.073Z,2.10
2019-01-09T19:00:05.042Z,2.50
2019-01-09T19:04:07.563Z,2.70
2019-01-09T19:08:10.654Z,1.80
2019-01-09T19:12:13.057Z,1.90
2019-01-09T19:16:15.412Z,2.30
2019-01-09T19:20:18.622Z,2.10
2019-01-09T19:24:20.995Z,2.20
2019-01-09T19:28:23.341Z,2.50
2019-01-09T19:32:25.834Z,2.80
2019-01-09T19:36:29.253Z,1.80
2019-01-09T19:40:31.649Z,1.80
2019-01-09T19:44:34.049Z,2.30
2019-01-09T19:48:36.452Z,2.90
2019-01-09T19:52:38.906Z,2.80
2019-01-09T19:56:43.759Z,2.00
2019-01-09T20:00:46.963Z,2.20
2019-01-09T20:04:49.339Z,3.00
2019-01-09T20:08:51.734Z,2.00
2019-01-09T20:12:54.221Z,2.70
2019-01-09T20:16:56.685Z,2.20
2019-01-09T20:20:59.189Z,1.90
2019-01-09T20:25:01.583Z,2.60
2019-01-09T20:29:04.043Z,2.40
2019-01-09T20:33:06.434Z,2.50
2019-01-09T20:37:08.897Z,2.30
2019-01-09T20:41:11.944Z,2.30
2019-01-09T20:45:15.234Z,2.90
2019-01-09T20:49:17.638Z,3.30
2019-01-09T20:53:20.126Z,4.30
2019-01-09T20:57:22.550Z,2.90
2019-01-09T21:01:25.361Z,3.80
2019-01-09T21:05:33.699Z,2.20
2019-01-09T21:09:36.472Z,2.90
2019-01-09T21:13:38.940Z,2.90
2019-01-09T21:17:41.368Z,2.20
2019-01-09T21:21:43.744Z,2.80
2019-01-09T21:25:46.033Z,2.10
2019-01-09T21:29:48.374Z,1.90
2019-01-09T21:33:51.387Z,2.60
2019-01-09T21:37:53.712Z,2.10
2019-01-09T21:41:56.027Z,3.20
2019-01-09T21:45:58.561Z,3.00
2019-01-09T21:50:01.027Z,2.60
2019-01-09T21:54:03.482Z,1.90
2019-01-09T21:58:06.788Z,2.30
2019-01-09T22:02:09.037Z,3.30
2019-01-09T22:06:11.386Z,2.80
2019-01-09T22:10:17.268Z,2.80
2019-01-09T22:14:19.628Z,3.80
2019-01-09T22:18:21.998Z,3.80
2019-01-09T22:22:24.323Z,2.80
2019-01-09T22:26:26.922Z,2.80
2019-01-09T22:30:29.488Z,3.60
2019-01-09T22:34:31.868Z,4.00
2019-01-09T22:38:34.725Z,3.20
2019-01-09T22:42:37.133Z,2.40
2019-01-09T22:46:39.727Z,2.40
2019-01-09T22:50:42.177Z,2.00
2019-01-09T22:54:44.606Z,2.50
2019-01-09T22:58:46.942Z,3.30
2019-01-09T23:02:49.277Z,2.30
2019-01-09T23:06:51.663Z,2.30
2019-01-09T23:10:55.989Z,3.10
2019-01-09T23:14:56.345Z,2.10
2019-01-09T23:18:58.791Z,3.50
2019-01-09T23:23:01.351Z,3.10
2019-01-09T23:27:03.833Z,2.20
2019-01-09T23:31:06.242Z,2.60
2019-01-09T23:35:08.680Z,3.90
2019-01-09T23:39:11.087Z,3.40
2019-01-09T23:43:13.515Z,4.10
2019-01-09T23:47:15.944Z,3.80
2019-01-09T23:51:18.320Z,2.80
2019-01-09T23:55:20.699Z,2.50
2019-01-09T23:59:23.019Z,4.10
